Nearby METAR Reports

 

EGKB - Biggin Hill, United Kingdom
Distance from station: S 5mi, 8km
Updated: 03/07/2015 08:20
Clear
Clear
 Wind from ENE
Wind: ENE 10 mph , 17 km/h
Temperature: 17°C
Dew Point: 10°C
Humidity: 64%
Barometer: 1026 hPa
Summary: Clear
Visibility: greater than 7 miles , 10 km
2015/07/03 07:20 EGKB 030720Z 06009KT CAVOK 17/10 Q1026
EGLC - London City Airp, United Kingdom
Distance from station: NNE 8mi, 13km
Updated: 03/07/2015 08:20
Clear
Clear
 Wind from E
Wind: E 8 mph , 13 km/h
Temperature: 19°C
Dew Point: 10°C
Humidity: 56%
Barometer: 1026 hPa
Summary: Clear
Visibility: greater than 7 miles , 10 km
2015/07/03 07:20 EGLC 030720Z 08007KT 040V110 CAVOK 19/10 Q1026
 
EGKK - London/Gatwick A, United Kingdom
Distance from station: SSW 19mi, 31km
Updated: 03/07/2015 08:20
Clear
Clear
 Wind from NE
Wind: NE 9 mph , 15 km/h
Temperature: 18°C
Dew Point: 11°C
Humidity: 64%
Barometer: 1026 hPa
Summary: Clear
Visibility: greater than 7 miles , 10 km
2015/07/03 07:20 EGKK 030720Z 05008KT 010V090 CAVOK 18/11 Q1026
EGLL - London/Heathrow, United Kingdom
Distance from station: WNW 21mi, 33km
Updated: 03/07/2015 08:20
Few Clouds
Few Clouds
 Wind from ENE
Wind: ENE 7 mph , 11 km/h
Temperature: 19°C
Dew Point: 11°C
Humidity: 60%
Barometer: 1026 hPa
Clouds: Few Clouds
Visibility: 6 miles , 10 km
Cloud details: Few Clouds 853 m
2015/07/03 07:20 EGLL 030720Z 06006KT 020V100 9999 FEW028 19/11 Q1026 NOSIG